Time;durP1;ratioP1;P1;durP2;ratioP2;P2;SDS_P1;SDS_P2;PMS_P1;PMS_P2;Temp;Humidity;BMP_temperature;BMP_pressure;BME280_temperature;BME280_humidity;BME280_pressure;Samples;Min_cycle;Max_cycle;Signal;HPM_P1;HPM_P2
2022/07/30 00:02:23;;;;;;;6.25;3.65;;;;;;;17.25;100.00;101794.63;2614427;36;20057;-46
2022/07/30 00:04:51;;;;;;;8.18;3.72;;;;;;;17.26;100.00;101788.16;2615899;36;20447;-51
2022/07/30 00:07:22;;;;;;;7.77;3.90;;;;;;;17.27;100.00;101791.72;2614662;36;20598;-49
2022/07/30 00:09:50;;;;;;;9.27;4.50;;;;;;;17.25;100.00;101791.06;2614783;36;20034;-49
2022/07/30 00:12:19;;;;;;;6.27;4.00;;;;;;;17.17;100.00;101795.41;2614894;36;20034;-45
2022/07/30 00:14:47;;;;;;;6.55;3.97;;;;;;;17.17;100.00;101795.41;2615471;31;20058;-47
2022/07/30 00:17:15;;;;;;;5.67;4.00;;;;;;;17.13;100.00;101794.00;2614772;31;20045;-49
2022/07/30 00:19:43;;;;;;;7.47;4.13;;;;;;;17.11;100.00;101785.16;2615283;36;20304;-51
2022/07/30 00:22:12;;;;;;;12.93;3.67;;;;;;;17.12;100.00;101788.72;2614651;31;20074;-50
2022/07/30 00:24:43;;;;;;;6.50;4.33;;;;;;;17.15;100.00;101785.69;2615378;36;20077;-46
2022/07/30 00:27:13;;;;;;;6.07;3.72;;;;;;;17.11;100.00;101779.72;2615083;36;20689;-47
2022/07/30 00:29:43;;;;;;;9.20;3.60;;;;;;;17.10;100.00;101778.00;2615397;36;20039;-51
2022/07/30 00:32:11;;;;;;;6.10;3.50;;;;;;;17.22;100.00;101775.03;2614489;36;20034;-48
2022/07/30 00:34:39;;;;;;;5.93;3.80;;;;;;;17.15;100.00;101778.41;2615927;36;20054;-47
2022/07/30 00:37:08;;;;;;;8.63;3.83;;;;;;;17.13;100.00;101772.25;2614022;36;20552;-46
2022/07/30 00:39:36;;;;;;;8.33;3.73;;;;;;;17.05;100.00;101774.91;2615341;36;20295;-48
2022/07/30 00:42:07;;;;;;;10.17;3.57;;;;;;;17.01;100.00;101778.09;2615223;36;20435;-47
2022/07/30 00:44:35;;;;;;;9.05;3.95;;;;;;;17.02;100.00;101777.94;2615568;36;20833;-50
2022/07/30 00:47:04;;;;;;;6.68;3.50;;;;;;;17.00;100.00;101779.94;2615029;36;20133;-47
2022/07/30 00:49:32;;;;;;;4.55;3.95;;;;;;;16.97;100.00;101775.69;2615266;36;20050;-49
2022/07/30 00:52:00;;;;;;;5.93;3.83;;;;;;;17.06;100.00;101784.75;2615000;36;20048;-48
2022/07/30 00:54:28;;;;;;;6.50;4.10;;;;;;;17.02;100.00;101777.06;2615602;36;20551;-48
2022/07/30 00:56:57;;;;;;;10.40;5.00;;;;;;;16.93;100.00;101784.28;2614480;31;20035;-48
2022/07/30 00:59:30;;;;;;;14.17;4.60;;;;;;;16.90;100.00;101781.91;2615779;36;20424;-47
2022/07/30 01:02:00;;;;;;;5.78;3.58;;;;;;;16.81;100.00;101784.50;2614809;31;20296;-47
2022/07/30 01:04:29;;;;;;;11.35;4.30;;;;;;;16.89;100.00;101775.63;2615361;36;20129;-48
2022/07/30 01:06:57;;;;;;;5.85;3.75;;;;;;;16.91;100.00;101783.59;2614586;36;20035;-48
2022/07/30 01:09:25;;;;;;;5.90;4.07;;;;;;;16.86;100.00;101775.00;2615085;36;20085;-49
2022/07/30 01:11:54;;;;;;;7.07;4.40;;;;;;;16.83;100.00;101773.50;2614407;36;20038;-47
2022/07/30 01:14:23;;;;;;;10.57;4.72;;;;;;;16.85;100.00;101785.06;2614902;36;20031;-46
2022/07/30 01:16:53;;;;;;;9.65;5.55;;;;;;;16.85;100.00;101774.16;2614740;36;20483;-48
2022/07/30 01:22:20;;;;;;;10.30;5.20;;;;;;;16.82;100.00;101778.03;2614818;36;20035;-47
2022/07/30 01:24:57;;;;;;;6.88;4.82;;;;;;;16.83;100.00;101776.19;2615778;36;20066;-47
2022/07/30 01:27:30;;;;;;;7.13;5.15;;;;;;;16.80;100.00;101773.78;2614665;36;20128;-48
2022/07/30 01:30:00;;;;;;;10.07;4.70;;;;;;;16.81;100.00;101778.19;2615312;36;20030;-48
2022/07/30 01:32:31;;;;;;;7.85;4.50;;;;;;;16.90;100.00;101777.31;2614073;36;20046;-50
2022/07/30 01:35:01;;;;;;;9.45;4.80;;;;;;;16.87;100.00;101776.75;2616236;31;20073;-48
2022/07/30 01:37:31;;;;;;;8.98;5.18;;;;;;;16.91;100.00;101779.00;2614991;31;20567;-46
2022/07/30 01:40:00;;;;;;;6.80;4.80;;;;;;;16.99;100.00;101772.81;2614302;36;20042;-49
2022/07/30 01:42:32;;;;;;;9.10;5.63;;;;;;;17.05;100.00;101771.31;2615258;36;20634;-48
2022/07/30 01:45:01;;;;;;;8.07;4.78;;;;;;;16.96;100.00;101764.94;2614641;36;20041;-49
2022/07/30 01:47:32;;;;;;;9.93;4.90;;;;;;;16.89;100.00;101759.28;2615570;31;20030;-53
2022/07/30 01:50:01;;;;;;;7.43;5.25;;;;;;;16.86;100.00;101764.13;2615395;36;20129;-52
2022/07/30 01:52:31;;;;;;;7.38;5.07;;;;;;;16.90;100.00;101757.41;2615012;36;20034;-49
2022/07/30 01:55:01;;;;;;;7.10;5.15;;;;;;;16.78;100.00;101762.19;2615655;36;20447;-50
2022/07/30 01:57:33;;;;;;;9.30;5.07;;;;;;;16.72;100.00;101760.09;2614360;36;20039;-47
2022/07/30 02:00:05;;;;;;;7.63;4.60;;;;;;;16.78;100.00;101768.50;2615742;31;20473;-47
2022/07/30 02:02:33;;;;;;;11.90;5.45;;;;;;;16.72;100.00;101769.09;2614229;36;20186;-47
2022/07/30 02:05:02;;;;;;;11.23;5.70;;;;;;;16.74;100.00;101769.84;2614901;36;20499;-48
2022/07/30 02:07:37;;;;;;;6.03;4.70;;;;;;;16.65;100.00;101768.00;2614712;36;20035;-47
2022/07/30 02:10:13;;;;;;;10.68;5.45;;;;;;;16.62;100.00;101768.31;2614379;31;20035;-46
2022/07/30 02:12:50;;;;;;;11.40;5.18;;;;;;;16.54;100.00;101769.09;2614616;36;20030;-48
2022/07/30 02:15:25;;;;;;;8.48;4.55;;;;;;;16.55;100.00;101767.22;2614735;36;20030;-46
2022/07/30 02:18:02;;;;;;;9.73;5.53;;;;;;;16.55;100.00;101772.66;2613452;36;20053;-47
2022/07/30 02:20:33;;;;;;;9.40;5.88;;;;;;;16.59;100.00;101774.94;2614686;36;20054;-49
2022/07/30 02:23:04;;;;;;;8.63;4.85;;;;;;;16.64;100.00;101769.88;2615368;36;20034;-47
2022/07/30 02:25:36;;;;;;;8.25;5.55;;;;;;;16.65;100.00;101770.72;2616043;36;20038;-47
2022/07/30 02:28:11;;;;;;;8.40;5.55;;;;;;;16.61;100.00;101774.78;2615704;36;20042;-48
2022/07/30 02:30:45;;;;;;;6.57;5.38;;;;;;;16.64;100.00;101774.47;2615614;36;20058;-48
2022/07/30 02:33:17;;;;;;;7.80;4.90;;;;;;;16.55;100.00;101778.09;2615785;36;20630;-54
2022/07/30 02:35:45;;;;;;;11.02;5.60;;;;;;;16.56;100.00;101779.81;2615661;36;20035;-49
2022/07/30 02:38:17;;;;;;;7.13;5.22;;;;;;;16.62;100.00;101781.91;2615629;36;20034;-49
2022/07/30 02:40:46;;;;;;;7.03;5.68;;;;;;;16.63;100.00;101775.47;2614965;36;20046;-46
2022/07/30 02:43:20;;;;;;;7.03;4.68;;;;;;;16.67;100.00;101782.31;2615166;31;20041;-50
2022/07/30 02:45:50;;;;;;;8.35;5.57;;;;;;;16.78;100.00;101781.22;2615825;31;20126;-46
2022/07/30 02:48:22;;;;;;;7.50;4.75;;;;;;;16.81;100.00;101784.50;2615045;36;20053;-49
2022/07/30 02:50:52;;;;;;;10.23;5.43;;;;;;;16.89;100.00;101781.06;2615608;36;20444;-48
2022/07/30 02:53:22;;;;;;;7.18;5.13;;;;;;;16.93;100.00;101787.88;2616186;31;20023;-47
2022/07/30 02:55:52;;;;;;;7.15;5.07;;;;;;;16.95;100.00;101787.72;2615888;36;20887;-50
2022/07/30 02:58:25;;;;;;;7.43;5.38;;;;;;;16.92;100.00;101785.34;2615459;36;20038;-48
2022/07/30 03:00:56;;;;;;;6.25;4.32;;;;;;;17.02;100.00;101786.09;2616031;36;20451;-46
2022/07/30 03:03:28;;;;;;;7.03;4.15;;;;;;;17.01;100.00;101789.81;2614791;36;20029;-49
2022/07/30 03:05:57;;;;;;;8.20;5.15;;;;;;;16.98;100.00;101784.69;2615547;36;20065;-47
2022/07/30 03:08:27;;;;;;;9.90;5.85;;;;;;;16.99;100.00;101783.69;2615054;36;20022;-49
2022/07/30 03:10:57;;;;;;;9.50;4.97;;;;;;;16.94;100.00;101777.84;2615713;31;20061;-46
2022/07/30 03:13:28;;;;;;;8.68;4.78;;;;;;;16.84;100.00;101783.31;2615415;32;20037;-48
2022/07/30 03:16:00;;;;;;;8.40;4.95;;;;;;;16.69;100.00;101777.56;2615681;36;20835;-47
2022/07/30 03:18:34;;;;;;;6.60;5.53;;;;;;;16.66;100.00;101775.16;2615317;36;20424;-47
2022/07/30 03:21:04;;;;;;;8.10;5.20;;;;;;;16.60;100.00;101773.06;2615475;36;20439;-49
2022/07/30 03:23:36;;;;;;;10.80;5.25;;;;;;;16.46;100.00;101775.31;2615614;36;20061;-46
2022/07/30 03:26:08;;;;;;;7.53;4.72;;;;;;;16.34;100.00;101776.53;2615254;36;20031;-48
2022/07/30 03:28:41;;;;;;;8.63;5.30;;;;;;;16.32;100.00;101778.53;2615807;36;20045;-48
2022/07/30 03:31:10;;;;;;;8.50;4.78;;;;;;;16.28;100.00;101777.13;2615137;36;20046;-47
2022/07/30 03:33:39;;;;;;;11.00;5.13;;;;;;;16.29;100.00;101784.25;2614883;36;20034;-48
2022/07/30 03:36:09;;;;;;;6.82;5.07;;;;;;;16.25;100.00;101789.16;2615181;36;20058;-49
2022/07/30 03:38:40;;;;;;;9.30;4.93;;;;;;;16.22;100.00;101785.88;2615752;36;20030;-50
2022/07/30 03:41:09;;;;;;;6.68;4.90;;;;;;;16.11;100.00;101786.94;2615437;36;20098;-48
2022/07/30 03:43:42;;;;;;;9.23;5.88;;;;;;;16.11;100.00;101786.94;2615927;36;20518;-51
2022/07/30 03:46:12;;;;;;;12.40;5.18;;;;;;;16.01;100.00;101786.97;2614872;36;20042;-49
2022/07/30 03:48:42;;;;;;;12.00;5.57;;;;;;;16.03;100.00;101787.69;2615486;36;20544;-49
2022/07/30 03:51:11;;;;;;;;;;;;;;;16.03;100.00;101790.41;2615074;36;20046;-48
2022/07/30 03:53:42;;;;;;;8.65;5.43;;;;;;;16.01;100.00;101784.25;2615499;36;20516;-49
2022/07/30 03:56:11;;;;;;;10.55;5.82;;;;;;;16.04;100.00;101781.22;2615167;36;20029;-47
2022/07/30 03:58:42;;;;;;;9.68;5.28;;;;;;;15.96;100.00;101778.44;2615528;36;20038;-46
2022/07/30 04:01:10;;;;;;;6.50;5.10;;;;;;;15.93;100.00;101781.44;2614869;36;20053;-52
2022/07/30 04:03:39;;;;;;;6.45;4.90;;;;;;;15.88;100.00;101783.72;2615116;36;20056;-46
2022/07/30 04:06:07;;;;;;;11.80;5.20;;;;;;;15.88;100.00;101786.44;2614680;36;20531;-46
2022/07/30 04:08:36;;;;;;;8.70;5.45;;;;;;;15.91;100.00;101780.72;2615626;36;20085;-50
2022/07/30 04:11:04;;;;;;;6.97;5.22;;;;;;;15.85;100.00;101784.03;2615072;36;20586;-46
2022/07/30 04:13:32;;;;;;;9.57;5.67;;;;;;;15.77;100.00;101788.31;2615681;36;20035;-45
2022/07/30 04:16:11;;;;;;;10.25;5.53;;;;;;;15.81;100.00;101785.31;2615821;36;20411;-47
2022/07/30 04:18:43;;;;;;;7.97;5.45;;;;;;;15.80;100.00;101789.91;2615258;36;20114;-47
2022/07/30 04:21:16;;;;;;;6.57;5.22;;;;;;;15.77;100.00;101793.72;2614649;36;20042;-47
2022/07/30 04:23:46;;;;;;;9.93;5.03;;;;;;;15.80;100.00;101794.47;2615602;36;20038;-45
2022/07/30 04:26:16;;;;;;;9.27;5.68;;;;;;;15.76;100.00;101796.59;2615024;36;20039;-46
2022/07/30 04:28:44;;;;;;;9.15;6.38;;;;;;;15.75;100.00;101801.19;2615284;36;20039;-46
2022/07/30 04:31:16;;;;;;;8.15;5.40;;;;;;;15.72;100.00;101795.16;2616223;31;20408;-47
2022/07/30 04:33:47;;;;;;;9.85;5.85;;;;;;;15.72;100.00;101804.19;2615374;36;20556;-50
2022/07/30 04:36:15;;;;;;;8.15;5.80;;;;;;;15.69;100.00;101807.16;2615120;31;20035;-48
2022/07/30 04:38:43;;;;;;;11.38;5.78;;;;;;;15.72;100.00;101803.31;2616407;36;20424;-53
2022/07/30 04:41:12;;;;;;;12.10;6.23;;;;;;;15.69;100.00;101793.59;2615155;36;20023;-47
2022/07/30 04:43:40;;;;;;;7.45;5.10;;;;;;;15.71;100.00;101797.03;2615248;36;20039;-48
2022/07/30 04:46:08;;;;;;;10.60;5.50;;;;;;;15.71;100.00;101797.03;2614883;36;20061;-48
2022/07/30 04:48:39;;;;;;;9.60;5.65;;;;;;;15.69;100.00;101801.75;2615059;36;20039;-47
2022/07/30 04:51:17;;;;;;;8.98;5.10;;;;;;;15.71;100.00;101801.63;2614853;36;20034;-48
2022/07/30 04:53:48;;;;;;;9.77;5.75;;;;;;;15.77;100.00;101806.47;2615271;36;20035;-48
2022/07/30 04:56:18;;;;;;;8.10;4.63;;;;;;;15.77;100.00;101801.88;2614949;36;20551;-47
2022/07/30 04:58:47;;;;;;;7.30;4.72;;;;;;;15.80;100.00;101805.31;2615022;36;20041;-48
2022/07/30 05:01:20;;;;;;;8.02;5.25;;;;;;;15.85;100.00;101816.59;2614695;36;20045;-50
2022/07/30 05:03:52;;;;;;;8.77;5.13;;;;;;;15.89;100.00;101816.16;2615991;36;20385;-50
2022/07/30 05:06:22;;;;;;;8.45;5.07;;;;;;;15.95;100.00;101820.16;2614439;36;20027;-48
2022/07/30 05:08:50;;;;;;;10.13;6.00;;;;;;;15.98;100.00;101813.56;2615587;36;20065;-48
2022/07/30 05:11:19;;;;;;;6.07;4.70;;;;;;;16.04;100.00;101819.25;2615251;36;20563;-53
2022/07/30 05:13:49;;;;;;;11.48;5.63;;;;;;;16.07;100.00;101824.38;2616124;31;20034;-49
2022/07/30 05:16:19;;;;;;;9.23;5.18;;;;;;;16.11;100.00;101814.94;2615043;36;20085;-49
2022/07/30 05:18:47;;;;;;;10.82;5.80;;;;;;;16.17;100.00;101818.06;2615760;36;20430;-51
2022/07/30 05:21:18;;;;;;;7.43;6.23;;;;;;;16.17;100.00;101820.78;2615002;36;20445;-48
2022/07/30 05:23:46;;;;;;;9.43;6.18;;;;;;;16.24;100.00;101819.19;2615220;36;20034;-50
2022/07/30 05:26:14;;;;;;;9.73;6.43;;;;;;;16.24;100.00;101824.63;2614577;36;20066;-52
2022/07/30 05:28:43;;;;;;;12.93;6.50;;;;;;;16.22;100.00;101829.34;2614745;36;20030;-50
2022/07/30 05:31:11;;;;;;;12.43;6.32;;;;;;;16.24;100.00;101824.63;2615169;36;20844;-52
2022/07/30 05:33:39;;;;;;;8.97;5.43;;;;;;;16.31;100.00;101825.72;2615061;36;20038;-46
2022/07/30 05:36:07;;;;;;;11.73;5.85;;;;;;;16.36;100.00;101819.84;2614617;36;20062;-46
2022/07/30 05:38:39;;;;;;;9.65;5.57;;;;;;;16.35;100.00;101829.84;2614851;36;20591;-47
2022/07/30 05:41:08;;;;;;;6.40;5.07;;;;;;;16.46;100.00;101832.38;2615847;36;20451;-48
2022/07/30 05:43:36;;;;;;;10.20;5.27;;;;;;;16.49;100.00;101827.63;2615256;36;20559;-47
2022/07/30 05:46:04;;;;;;;8.98;6.20;;;;;;;16.50;100.00;101829.34;2614889;31;20038;-49
2022/07/30 05:48:34;;;;;;;12.00;6.23;;;;;;;16.52;100.00;101839.06;2614556;36;20030;-48
2022/07/30 05:51:02;;;;;;;6.95;5.43;;;;;;;16.55;100.00;101844.19;2614500;36;20046;-46
2022/07/30 05:53:31;;;;;;;8.05;5.75;;;;;;;16.62;100.00;101852.59;2615060;36;20034;-47
2022/07/30 05:56:02;;;;;;;7.20;5.07;;;;;;;16.67;100.00;101844.84;2615587;31;20057;-50
2022/07/30 05:58:30;;;;;;;11.15;5.97;;;;;;;16.66;100.00;101850.44;2614494;36;20583;-53
2022/07/30 06:00:58;;;;;;;8.87;6.03;;;;;;;16.68;100.00;101845.69;2614760;31;20066;-48
2022/07/30 06:03:27;;;;;;;9.10;5.53;;;;;;;16.74;100.00;101854.09;2614427;36;20031;-47
2022/07/30 06:05:55;;;;;;;9.23;5.78;;;;;;;16.79;100.00;101851.75;2614609;36;20022;-52
2022/07/30 06:08:23;;;;;;;10.07;5.33;;;;;;;16.93;100.00;101852.28;2615484;36;20039;-47
2022/07/30 06:10:51;;;;;;;8.80;5.63;;;;;;;17.04;100.00;101851.22;2614783;36;20065;-51
2022/07/30 06:13:22;;;;;;;8.87;5.80;;;;;;;17.04;100.00;101860.22;2615154;36;20082;-48
2022/07/30 06:15:50;;;;;;;7.72;5.40;;;;;;;17.05;100.00;101867.38;2614800;36;20128;-48
2022/07/30 06:18:19;;;;;;;8.13;5.77;;;;;;;17.13;100.00;101864.72;2614362;36;20586;-48
2022/07/30 06:20:50;;;;;;;7.78;3.53;;;;;;;17.14;100.00;101858.28;2615147;36;20583;-51
2022/07/30 06:23:18;;;;;;;9.30;5.60;;;;;;;17.23;100.00;101867.38;2614782;36;20035;-51
2022/07/30 06:25:47;;;;;;;7.03;4.85;;;;;;;17.34;100.00;101864.44;2614798;36;20030;-48
2022/07/30 06:28:15;;;;;;;7.17;5.50;;;;;;;17.48;100.00;101863.03;2614263;36;20038;-49
2022/07/30 06:30:47;;;;;;;9.37;5.73;;;;;;;17.68;100.00;101868.28;2614984;36;20334;-52
2022/07/30 06:33:16;;;;;;;11.60;5.43;;;;;;;17.74;100.00;101867.66;2613743;31;20371;-48
2022/07/30 06:35:44;;;;;;;10.02;5.20;;;;;;;17.92;100.00;101855.88;2614687;36;20033;-48
2022/07/30 06:38:12;;;;;;;6.80;4.53;;;;;;;18.03;100.00;101861.94;2614365;36;20038;-49
2022/07/30 06:40:41;;;;;;;8.87;4.77;;;;;;;18.23;100.00;101866.28;2615220;36;20459;-47
2022/07/30 06:43:09;;;;;;;12.27;4.25;;;;;;;18.52;100.00;101865.91;2614734;36;20498;-48
2022/07/30 06:45:38;;;;;;;7.27;4.37;;;;;;;18.70;100.00;101868.56;2614432;36;20046;-52
2022/07/30 06:48:09;;;;;;;7.53;3.90;;;;;;;18.96;100.00;101865.75;2614319;36;20035;-50
2022/07/30 06:50:40;;;;;;;6.22;3.92;;;;;;;19.09;100.00;101868.00;2614658;36;20126;-49
2022/07/30 06:53:08;;;;;;;9.00;4.10;;;;;;;18.97;100.00;101869.34;2614795;36;20038;-48
2022/07/30 06:55:36;;;;;;;7.65;3.95;;;;;;;19.18;100.00;101872.44;2614246;36;20030;-47
2022/07/30 06:58:05;;;;;;;7.35;3.63;;;;;;;19.19;100.00;101862.38;2614272;36;20086;-48
2022/07/30 07:00:33;;;;;;;7.43;3.55;;;;;;;19.13;100.00;101858.44;2614714;36;20057;-48
2022/07/30 07:03:01;;;;;;;5.20;3.03;;;;;;;19.42;100.00;101862.59;2614167;36;20039;-47
2022/07/30 07:05:32;;;;;;;7.50;3.63;;;;;;;19.75;100.00;101862.56;2614803;36;20034;-50
2022/07/30 07:08:00;;;;;;;4.88;2.80;;;;;;;20.13;100.00;101857.41;2614938;36;20034;-47
2022/07/30 07:10:29;;;;;;;5.97;2.20;;;;;;;20.28;100.00;101847.44;2616282;36;20034;-46
2022/07/30 07:12:59;;;;;;;4.97;2.22;;;;;;;20.60;100.00;101864.75;2615390;36;20295;-51
2022/07/30 07:15:27;;;;;;;7.13;2.70;;;;;;;20.79;100.00;101854.44;2615487;36;20045;-50
2022/07/30 07:17:56;;;;;;;3.17;2.00;;;;;;;20.65;100.00;101847.78;2615202;36;20035;-49
2022/07/30 07:20:24;;;;;;;5.05;2.15;;;;;;;20.87;100.00;101845.31;2615117;36;20034;-48
2022/07/30 07:22:55;;;;;;;4.93;2.53;;;;;;;20.88;100.00;101852.50;2615443;36;20034;-50
2022/07/30 07:25:24;;;;;;;3.95;2.50;;;;;;;20.79;100.00;101857.19;2615094;36;20038;-49
2022/07/30 07:27:52;;;;;;;4.35;2.50;;;;;;;20.76;100.00;101855.66;2615128;36;20041;-49
2022/07/30 07:30:20;;;;;;;5.85;2.83;;;;;;;20.98;100.00;101862.19;2615169;36;20065;-49
2022/07/30 07:32:48;;;;;;;8.50;2.00;;;;;;;21.16;100.00;101861.03;2615041;36;20030;-49
2022/07/30 07:35:17;;;;;;;3.40;1.88;;;;;;;20.97;100.00;101863.22;2614828;36;20064;-49
2022/07/30 07:37:45;;;;;;;2.70;1.85;;;;;;;21.42;100.00;101862.53;2615627;36;20034;-52
2022/07/30 07:40:16;;;;;;;3.97;2.00;;;;;;;21.34;100.00;101867.06;2615442;36;20034;-47
2022/07/30 07:42:45;;;;;;;6.32;1.83;;;;;;;21.32;100.00;101874.59;2615774;36;20064;-49
2022/07/30 07:45:13;;;;;;;4.85;2.00;;;;;;;21.35;100.00;101873.41;2615885;36;20609;-48
2022/07/30 07:47:45;;;;;;;3.00;1.83;;;;;;;21.61;100.00;101870.31;2614576;36;20041;-50
2022/07/30 07:50:17;;;;;;;6.97;2.00;;;;;;;21.72;100.00;101877.22;2615382;31;20022;-49
2022/07/30 07:52:45;;;;;;;3.75;1.95;;;;;;;21.49;100.00;101869.84;2615261;36;21139;-54
2022/07/30 07:55:16;;;;;;;5.75;1.85;;;;;;;21.32;100.00;101874.59;2615570;36;20066;-49
2022/07/30 07:57:46;;;;;;;4.35;1.80;;;;;;;21.31;100.00;101875.63;2615247;36;20065;-50
2022/07/30 08:00:16;;;;;;;2.63;1.77;;;;;;;21.60;100.00;101870.47;2614700;36;20035;-52
2022/07/30 08:02:45;;;;;;;4.82;2.15;;;;;;;21.90;100.00;101868.66;2614824;36;20046;-47
2022/07/30 08:05:14;;;;;;;3.00;1.92;;;;;;;22.16;100.00;101864.63;2615657;31;20496;-53
2022/07/30 08:07:44;;;;;;;4.22;1.60;;;;;;;22.36;100.00;101868.53;2615544;36;20560;-52
2022/07/30 08:10:14;;;;;;;4.57;2.17;;;;;;;22.08;100.00;101865.56;2615047;36;20069;-47
2022/07/30 08:12:46;;;;;;;5.50;2.08;;;;;;;22.17;100.00;101858.97;2619675;36;20031;-48
2022/07/30 08:15:14;;;;;;;5.72;1.70;;;;;;;22.42;100.00;101860.56;2615441;36;20034;-52
2022/07/30 08:17:43;;;;;;;2.38;1.42;;;;;;;22.63;100.00;101857.91;2614843;36;20460;-49
2022/07/30 08:20:13;;;;;;;3.50;1.40;;;;;;;22.20;100.00;101853.09;2614928;36;20041;-47
2022/07/30 08:22:41;;;;;;;4.43;1.77;;;;;;;21.87;100.00;101864.41;2615981;36;20065;-48
2022/07/30 08:25:11;;;;;;;2.70;1.50;;;;;;;22.15;100.00;101860.19;2615280;36;20081;-49
2022/07/30 08:27:39;;;;;;;5.05;1.80;;;;;;;22.73;100.00;101863.94;2615482;31;20065;-47
2022/07/30 08:30:12;;;;;;;2.47;1.60;;;;;;;22.73;100.00;101860.34;2615099;36;20038;-48
2022/07/30 08:32:40;;;;;;;3.63;1.70;;;;;;;22.80;100.00;101852.19;2615608;31;20135;-49
2022/07/30 08:35:09;;;;;;;5.57;2.00;;;;;;;22.81;100.00;101854.75;2614725;36;20487;-48
2022/07/30 08:37:39;;;;;;;4.93;1.70;;;;;;;22.69;100.00;101851.66;2615278;31;20030;-50
2022/07/30 08:40:09;;;;;;;2.33;1.40;;;;;;;22.51;100.00;101848.44;2615163;36;20022;-51
2022/07/30 08:42:38;;;;;;;3.88;1.60;;;;;;;22.27;100.00;101853.16;2614811;31;20065;-49
2022/07/30 08:45:12;;;;;;;4.15;1.60;;;;;;;22.67;100.00;101851.00;2615661;36;20424;-50
2022/07/30 08:47:45;;;;;;;7.15;1.60;;;;;;;22.61;100.00;101859.13;2615115;31;20478;-50
2022/07/30 08:50:15;;;;;;;3.63;1.67;;;;;;;22.63;100.00;101857.03;2614993;36;20038;-48
2022/07/30 08:52:44;;;;;;;4.43;1.77;;;;;;;22.88;100.00;101860.31;2615204;36;20578;-50
2022/07/30 08:55:13;;;;;;;3.00;1.63;;;;;;;22.90;100.00;101858.22;2615292;36;20034;-49
2022/07/30 08:57:42;;;;;;;3.15;1.77;;;;;;;22.77;100.00;101855.31;2615165;36;20430;-50
2022/07/30 09:00:14;;;;;;;;;;;;;;;22.66;100.00;101857.53;2615517;31;20034;-49
2022/07/30 09:02:42;;;;;;;3.00;1.77;;;;;;;22.79;100.00;101850.47;2614531;36;20030;-50
2022/07/30 09:05:12;;;;;;;2.28;1.63;;;;;;;23.15;100.00;101860.63;2615204;36;20042;-53
2022/07/30 09:07:41;;;;;;;6.55;1.92;;;;;;;22.63;100.00;101863.41;2615113;36;20045;-48
2022/07/30 09:10:11;;;;;;;2.00;1.50;;;;;;;23.04;100.00;101859.22;2614925;36;20053;-48
2022/07/30 09:12:42;;;;;;;2.83;1.40;;;;;;;22.99;100.00;101867.19;2614941;36;20039;-52
2022/07/30 09:15:15;;;;;;;2.85;1.45;;;;;;;23.18;100.00;101868.47;2615295;36;20099;-46
2022/07/30 09:17:56;;;;;;;5.28;1.70;;;;;;;23.53;100.00;101874.94;2614452;36;20062;-47
2022/07/30 09:20:26;;;;;;;4.40;2.00;;;;;;;23.35;100.00;101875.44;2614983;36;20578;-48
2022/07/30 09:22:56;;;;;;;2.65;1.50;;;;;;;23.75;100.00;101873.03;2614997;36;20053;-48
2022/07/30 09:25:39;;;;;;;1.80;1.58;;;;;;;23.30;100.00;101872.41;2615100;36;20034;-50
2022/07/30 09:28:08;;;;;;;2.83;2.00;;;;;;;22.73;100.00;101874.06;2614691;36;20567;-56
2022/07/30 09:30:53;;;;;;;6.70;2.10;;;;;;;22.63;100.00;101884.47;2615754;36;20026;-49
2022/07/30 09:33:35;;;;;;;4.10;1.80;;;;;;;23.16;100.00;101878.78;2614736;36;20038;-49
2022/07/30 09:36:04;;;;;;;3.72;1.88;;;;;;;23.24;100.00;101881.44;2614676;36;20057;-51
2022/07/30 09:38:44;;;;;;;2.85;1.83;;;;;;;23.03;100.00;101885.00;2614988;31;20670;-52
2022/07/30 09:41:13;;;;;;;2.65;1.73;;;;;;;22.35;100.00;101888.78;2615000;36;20045;-48
2022/07/30 09:43:46;;;;;;;2.20;1.60;;;;;;;23.13;100.00;101881.94;2615358;36;20030;-47
2022/07/30 09:46:18;;;;;;;4.18;1.30;;;;;;;23.63;100.00;101882.88;2614444;31;20034;-51
2022/07/30 09:48:48;;;;;;;3.97;1.50;;;;;;;24.01;100.00;101887.19;2615364;36;20455;-50
2022/07/30 09:51:16;;;;;;;3.88;1.35;;;;;;;24.21;100.00;101881.84;2615001;36;20026;-48
2022/07/30 09:53:58;;;;;;;3.25;1.40;;;;;;;23.85;100.00;101877.31;2615465;36;20045;-52
2022/07/30 09:56:28;;;;;;;4.50;1.38;;;;;;;23.98;100.00;101882.09;2614231;36;20657;-48
2022/07/30 09:58:57;;;;;;;1.98;1.10;;;;;;;24.25;100.00;101875.72;2615055;36;20069;-49
2022/07/30 10:01:28;;;;;;;3.72;1.40;;;;;;;24.54;98.10;101884.75;2614287;36;20355;-48
2022/07/30 10:03:57;;;;;;;2.10;1.33;;;;;;;24.81;87.19;101882.19;2615237;36;20065;-49
2022/07/30 10:06:34;;;;;;;3.83;1.60;;;;;;;24.58;100.00;101876.97;2614342;36;20090;-48
2022/07/30 10:09:03;;;;;;;1.93;1.33;;;;;;;24.57;95.07;101878.00;2615154;36;20432;-47
2022/07/30 10:11:31;;;;;;;3.30;1.50;;;;;;;24.10;94.01;101880.47;2615096;36;20042;-50
2022/07/30 10:14:00;;;;;;;6.68;1.63;;;;;;;23.62;100.00;101879.25;2614215;36;20038;-48
2022/07/30 10:16:31;;;;;;;2.45;1.30;;;;;;;23.75;100.00;101864.78;2613677;36;21701;-48
2022/07/30 10:19:03;;;;;;;3.30;1.35;;;;;;;23.67;91.02;101867.66;2615951;54;20051;-48
2022/07/30 10:21:31;;;;;;;2.90;1.30;;;;;;;24.44;100.00;101860.38;2614366;36;20038;-49
2022/07/30 10:24:02;;;;;;;4.10;1.65;;;;;;;24.77;91.72;101865.19;2614949;31;20077;-48
2022/07/30 10:26:36;;;;;;;5.03;1.48;;;;;;;24.46;99.75;101855.50;2614445;36;20057;-48
2022/07/30 10:29:06;;;;;;;3.38;1.60;;;;;;;24.76;90.92;101858.00;2614960;36;20038;-48
2022/07/30 10:31:37;;;;;;;2.17;1.23;;;;;;;24.81;95.37;101846.38;2614402;36;20057;-48
2022/07/30 10:34:06;;;;;;;3.08;1.60;;;;;;;24.68;85.96;101855.44;2614444;36;20034;-50
2022/07/30 10:36:41;;;;;;;2.25;1.40;;;;;;;24.77;93.69;101856.94;2614947;36;20410;-48
2022/07/30 10:39:12;;;;;;;3.55;1.45;;;;;;;24.92;82.14;101855.94;2615340;36;20038;-49
2022/07/30 10:41:49;;;;;;;4.53;1.40;;;;;;;24.96;85.37;101868.25;2614658;36;20562;-48
2022/07/30 10:44:38;;;;;;;2.60;1.40;;;;;;;25.04;83.90;101869.94;2615417;36;20034;-49
2022/07/30 10:47:12;;;;;;;2.55;1.52;;;;;;;25.31;87.36;101865.38;2615063;36;20042;-50
2022/07/30 10:49:42;;;;;;;4.60;1.50;;;;;;;25.33;86.70;101857.75;2614830;36;20590;-50
2022/07/30 10:52:10;;;;;;;3.60;1.40;;;;;;;25.41;89.70;101860.31;2615171;36;20551;-50
2022/07/30 10:54:43;;;;;;;4.78;1.75;;;;;;;25.25;84.98;101855.13;2615603;36;20027;-48
2022/07/30 10:57:14;;;;;;;3.33;1.73;;;;;;;25.39;82.06;101856.88;2615950;36;20065;-49
2022/07/30 11:00:15;;;;;;;3.35;1.95;;;;;;;25.71;92.06;101866.22;2615594;36;20038;-49
2022/07/30 11:03:17;;;;;;;17.55;1.70;;;;;;;26.01;87.29;101859.44;2615162;36;20125;-52
2022/07/30 11:05:47;;;;;;;2.28;1.25;;;;;;;26.28;74.32;101856.63;2615557;36;20031;-51
2022/07/30 11:08:37;;;;;;;2.75;1.58;;;;;;;25.92;77.39;101861.53;2615250;36;20108;-50
2022/07/30 11:11:08;;;;;;;8.80;2.20;;;;;;;25.93;68.34;101862.38;2615255;36;20444;-48
2022/07/30 11:13:53;;;;;;;2.15;1.30;;;;;;;25.88;69.88;101852.88;2615476;36;20103;-52
2022/07/30 11:16:22;;;;;;;2.28;1.30;;;;;;;25.71;77.25;101857.13;2614674;31;20161;-50
2022/07/30 11:19:12;;;;;;;2.90;1.10;;;;;;;25.62;71.62;101858.41;2615365;31;20049;-48
2022/07/30 11:21:40;;;;;;;5.65;1.30;;;;;;;25.91;68.52;101851.56;2614995;36;20034;-50
2022/07/30 11:24:08;;;;;;;;;;;;;;;26.08;77.52;101859.44;2615649;36;20046;-50
2022/07/30 11:26:51;;;;;;;2.53;1.20;;;;;;;26.28;74.81;101854.72;2614866;36;19946;-49
2022/07/30 11:29:38;;;;;;;3.28;1.13;;;;;;;26.35;72.02;101857.44;2616493;31;20432;-49
2022/07/30 11:32:35;;;;;;;4.18;1.33;;;;;;;26.34;68.12;101864.03;2615294;36;20031;-51
2022/07/30 11:35:20;;;;;;;2.60;1.17;;;;;;;26.38;82.15;101849.59;2614313;36;20368;-48
2022/07/30 11:38:06;;;;;;;2.55;1.25;;;;;;;26.79;68.40;101858.56;2615321;36;20041;-46